Wenham, MA (01984)

9:53 AM EDT on August 04, 2015 (GMT -0400)
Waring School | | Change Station
CLOSE
Current Station
Personal Weather Station
Location: Beverly, MA
Elevation: 72 ft
Nearby Weather Stations

Elev 72 ft 42.57 °N, 70.84 °W | Updated 43 seconds ago

Mostly Cloudy
Mostly Cloudy
71.9 °F
Feels Like 71.9 °F
N
0.0
Wind Variable Wind from North
Gusts 5.0 mph

Today
High -- | Low -- °F
--% Chance of Precip.
Yesterday
High -- | Low -- °F
Precip. -- in
5:38 AM 8:00 PM
Waning Gibbous, 77% visible
Pressure 29.83 in
Visibility 10.0 miles
Clouds Scattered Clouds 2600 ft
Mostly Cloudy 3100 ft
Dew Point 72 °F
Humidity 100%
Rainfall 0.38 in
Snow Depth Not available.
UV 2 out of 12
Pollen 5.70 out of 12
Air Quality Not available.
Flu Activity Not available.
METAR KBVY 041253Z 00000KT 10SM SCT026 BKN031 21/19 A2984 RMK AO2 PK WND 23035/1209 LTG DSNT N-E RAB07E27 TSB00E34 SLP099 P0056 T02110189

More Conditions Fewer Conditions

Pressure 29.83 in
Visibility 10.0 miles
Clouds Scattered Clouds 2600 ft
Mostly Cloudy 3100 ft
Dew Point 72 °F
Humidity 100%
Rainfall 0.38 in
Snow Depth Not available.
UV 2 out of 12
Pollen 5.70 out of 12
Air Quality Not available.
Flu Activity Not available.
METAR KBVY 041253Z 00000KT 10SM SCT026 BKN031 21/19 A2984 RMK AO2 PK WND 23035/1209 LTG DSNT N-E RAB07E27 TSB00E34 SLP099 P0056 T02110189

More Conditions Fewer Conditions

10-Day Weather Forecast

×

Almanac

Astronomy

Aug. 04, 2015 Rise Set
Actual Time
Civil Twilight
Nautical Twilight
Astronomical Twilight
Moon
Length of Visible Light
Length of Day
Tomorrow will be .
, % of the Moon is Illuminated

Today's Extremes

State Highs State Lows

Community

WunderPhotos

Upload Photos

1,843,912 photos uploaded!

WunderBlogs® & News

Nearby

Air Quality

  Air Quality AQ Index Pollutant
Not available.

Snow Depth

Station Depth Elevation

Earthquake Activity

City Distance Mag. Time & Date
Minimum magnitude displayed is 2.5.

Coastal Water Temperatures

Place Temperature

Stations

Nearby Weather Stations

Station Location Temp. Windchill Dew Point Humidity Wind Precip. Elev Updated Type